sensor_id;sensor_type;location;lat;lon;timestamp;pressure;altitude;pressure_sealevel;temperature;humidity
56392;BME280;42289;53.582;9.714;2022-12-16T00:00:28;100634.59;;;-2.14;100.00
56392;BME280;42289;53.582;9.714;2022-12-16T00:02:57;100632.09;;;-2.08;100.00
56392;BME280;42289;53.582;9.714;2022-12-16T00:05:25;100638.00;;;-2.11;100.00
56392;BME280;42289;53.582;9.714;2022-12-16T00:07:52;100640.56;;;-2.09;100.00
56392;BME280;42289;53.582;9.714;2022-12-16T00:10:19;100649.06;;;-2.10;100.00
56392;BME280;42289;53.582;9.714;2022-12-16T00:12:46;100643.94;;;-2.12;100.00
56392;BME280;42289;53.582;9.714;2022-12-16T00:15:12;100642.34;;;-2.02;100.00
56392;BME280;42289;53.582;9.714;2022-12-16T00:17:39;100645.69;;;-2.06;100.00
56392;BME280;42289;53.582;9.714;2022-12-16T00:20:06;100646.53;;;-2.07;100.00
56392;BME280;42289;53.582;9.714;2022-12-16T00:22:35;100642.28;;;-2.08;100.00
56392;BME280;42289;53.582;9.714;2022-12-16T00:25:02;100642.31;;;-2.05;100.00
56392;BME280;42289;53.582;9.714;2022-12-16T00:27:28;100644.00;;;-2.04;100.00
56392;BME280;42289;53.582;9.714;2022-12-16T00:29:54;100639.78;;;-2.02;100.00
56392;BME280;42289;53.582;9.714;2022-12-16T00:32:21;100633.00;;;-2.01;100.00
56392;BME280;42289;53.582;9.714;2022-12-16T00:34:48;100635.59;;;-1.97;100.00
56392;BME280;42289;53.582;9.714;2022-12-16T00:37:14;100646.56;;;-2.03;100.00
56392;BME280;42289;53.582;9.714;2022-12-16T00:39:42;100645.75;;;-1.98;100.00
56392;BME280;42289;53.582;9.714;2022-12-16T00:42:08;100654.28;;;-1.95;100.00
56392;BME280;42289;53.582;9.714;2022-12-16T00:44:35;100647.56;;;-1.88;100.00
56392;BME280;42289;53.582;9.714;2022-12-16T00:47:01;100648.44;;;-1.88;100.00
56392;BME280;42289;53.582;9.714;2022-12-16T00:49:28;100650.09;;;-1.91;100.00
56392;BME280;42289;53.582;9.714;2022-12-16T00:51:54;100652.63;;;-1.94;100.00
56392;BME280;42289;53.582;9.714;2022-12-16T00:54:21;100657.72;;;-1.91;100.00
56392;BME280;42289;53.582;9.714;2022-12-16T00:56:48;100659.41;;;-1.93;100.00
56392;BME280;42289;53.582;9.714;2022-12-16T00:59:15;100656.91;;;-1.90;100.00
56392;BME280;42289;53.582;9.714;2022-12-16T01:01:41;100664.47;;;-1.96;100.00
56392;BME280;42289;53.582;9.714;2022-12-16T01:04:08;100674.69;;;-1.93;100.00
56392;BME280;42289;53.582;9.714;2022-12-16T01:06:34;100673.78;;;-1.98;100.00
56392;BME280;42289;53.582;9.714;2022-12-16T01:09:01;100673.84;;;-1.92;100.00
56392;BME280;42289;53.582;9.714;2022-12-16T01:11:27;100678.94;;;-1.92;100.00
56392;BME280;42289;53.582;9.714;2022-12-16T01:13:55;100678.13;;;-1.88;100.00
56392;BME280;42289;53.582;9.714;2022-12-16T01:16:21;100679.84;;;-1.90;100.00
56392;BME280;42289;53.582;9.714;2022-12-16T01:18:48;100682.31;;;-1.93;100.00
56392;BME280;42289;53.582;9.714;2022-12-16T01:21:15;100687.59;;;-1.76;100.00
56392;BME280;42289;53.582;9.714;2022-12-16T01:23:41;100693.31;;;-1.97;100.00
56392;BME280;42289;53.582;9.714;2022-12-16T01:26:08;100700.22;;;-1.90;100.00
56392;BME280;42289;53.582;9.714;2022-12-16T01:28:40;100702.78;;;-1.89;100.00
56392;BME280;42289;53.582;9.714;2022-12-16T01:31:08;100712.03;;;-1.97;100.00
56392;BME280;42289;53.582;9.714;2022-12-16T01:33:34;100716.38;;;-1.87;100.00
56392;BME280;42289;53.582;9.714;2022-12-16T01:36:02;100709.59;;;-1.84;100.00
56392;BME280;42289;53.582;9.714;2022-12-16T01:38:29;100713.88;;;-1.82;100.00
56392;BME280;42289;53.582;9.714;2022-12-16T01:40:56;100710.44;;;-1.86;100.00
56392;BME280;42289;53.582;9.714;2022-12-16T01:43:24;100720.50;;;-1.96;100.00
56392;BME280;42289;53.582;9.714;2022-12-16T01:45:52;100722.16;;;-1.98;100.00
56392;BME280;42289;53.582;9.714;2022-12-16T01:48:33;100721.28;;;-2.04;100.00
56392;BME280;42289;53.582;9.714;2022-12-16T01:51:05;100725.56;;;-2.01;100.00
56392;BME280;42289;53.582;9.714;2022-12-16T01:53:34;100717.88;;;-2.04;100.00
56392;BME280;42289;53.582;9.714;2022-12-16T01:56:02;100725.47;;;-2.09;100.00
56392;BME280;42289;53.582;9.714;2022-12-16T01:58:33;100733.91;;;-2.13;100.00
56392;BME280;42289;53.582;9.714;2022-12-16T02:01:10;100727.09;;;-2.15;100.00
56392;BME280;42289;53.582;9.714;2022-12-16T02:03:40;100732.97;;;-2.20;100.00
56392;BME280;42289;53.582;9.714;2022-12-16T02:06:08;100734.75;;;-2.12;100.00
56392;BME280;42289;53.582;9.714;2022-12-16T02:08:35;100737.41;;;-2.05;100.00
56392;BME280;42289;53.582;9.714;2022-12-16T02:11:10;100736.50;;;-2.07;100.00
56392;BME280;42289;53.582;9.714;2022-12-16T02:13:52;100747.63;;;-2.00;100.00
56392;BME280;42289;53.582;9.714;2022-12-16T02:16:25;100737.44;;;-2.01;100.00
56392;BME280;42289;53.582;9.714;2022-12-16T02:18:56;100739.94;;;-2.06;100.00
56392;BME280;42289;53.582;9.714;2022-12-16T02:21:38;100745.84;;;-2.09;100.00
56392;BME280;42289;53.582;9.714;2022-12-16T02:24:29;100743.28;;;-2.10;100.00
56392;BME280;42289;53.582;9.714;2022-12-16T02:30:46;100747.38;;;-2.22;100.00
56392;BME280;42289;53.582;9.714;2022-12-16T02:36:22;100749.84;;;-2.29;100.00
56392;BME280;42289;53.582;9.714;2022-12-16T02:38:55;100746.34;;;-2.36;100.00
56392;BME280;42289;53.582;9.714;2022-12-16T02:41:31;100746.34;;;-2.36;100.00
56392;BME280;42289;53.582;9.714;2022-12-16T02:44:04;100747.06;;;-2.45;100.00
56392;BME280;42289;53.582;9.714;2022-12-16T02:46:37;100737.81;;;-2.40;100.00
56392;BME280;42289;53.582;9.714;2022-12-16T02:49:06;100737.69;;;-2.47;100.00
56392;BME280;42289;53.582;9.714;2022-12-16T02:51:34;100745.41;;;-2.44;100.00
56392;BME280;42289;53.582;9.714;2022-12-16T02:54:03;100742.75;;;-2.50;100.00
56392;BME280;42289;53.582;9.714;2022-12-16T02:56:43;100743.53;;;-2.56;100.00
56392;BME280;42289;53.582;9.714;2022-12-16T02:59:17;100737.41;;;-2.67;100.00
56392;BME280;42289;53.582;9.714;2022-12-16T03:01:53;100740.03;;;-2.64;100.00
56392;BME280;42289;53.582;9.714;2022-12-16T03:04:26;100743.38;;;-2.68;100.00
56392;BME280;42289;53.582;9.714;2022-12-16T03:06:59;100740.84;;;-2.65;100.00
56392;BME280;42289;53.582;9.714;2022-12-16T03:09:29;100736.56;;;-2.69;100.00
56392;BME280;42289;53.582;9.714;2022-12-16T03:11:59;100743.41;;;-2.65;100.00
56392;BME280;42289;53.582;9.714;2022-12-16T03:14:30;100745.84;;;-2.72;100.00
56392;BME280;42289;53.582;9.714;2022-12-16T03:17:00;100750.91;;;-2.75;100.00
56392;BME280;42289;53.582;9.714;2022-12-16T03:19:27;100745.78;;;-2.76;100.00
56392;BME280;42289;53.582;9.714;2022-12-16T03:21:59;100754.28;;;-2.74;100.00
56392;BME280;42289;53.582;9.714;2022-12-16T03:24:28;100753.41;;;-2.78;100.00
56392;BME280;42289;53.582;9.714;2022-12-16T03:27:00;100753.38;;;-2.79;100.00
56392;BME280;42289;53.582;9.714;2022-12-16T03:29:36;100754.97;;;-2.86;100.00
56392;BME280;42289;53.582;9.714;2022-12-16T03:32:09;100760.81;;;-2.92;100.00
56392;BME280;42289;53.582;9.714;2022-12-16T03:34:40;100761.59;;;-2.96;100.00
56392;BME280;42289;53.582;9.714;2022-12-16T03:37:10;100754.81;;;-2.97;100.00
56392;BME280;42289;53.582;9.714;2022-12-16T03:39:40;100757.28;;;-3.00;100.00
56392;BME280;42289;53.582;9.714;2022-12-16T03:42:08;100766.63;;;-3.00;100.00
56392;BME280;42289;53.582;9.714;2022-12-16T03:44:35;100769.06;;;-3.05;100.00
56392;BME280;42289;53.582;9.714;2022-12-16T03:47:02;100767.31;;;-3.09;100.00
56392;BME280;42289;53.582;9.714;2022-12-16T03:49:30;100774.97;;;-3.08;100.00
56392;BME280;42289;53.582;9.714;2022-12-16T03:51:56;100774.88;;;-3.12;100.00
56392;BME280;42289;53.582;9.714;2022-12-16T03:54:23;100776.50;;;-3.16;100.00
56392;BME280;42289;53.582;9.714;2022-12-16T03:56:49;100785.00;;;-3.17;100.00
56392;BME280;42289;53.582;9.714;2022-12-16T03:59:16;100785.25;;;-3.50;100.00
56392;BME280;42289;53.582;9.714;2022-12-16T04:01:43;100791.91;;;-3.57;100.00
56392;BME280;42289;53.582;9.714;2022-12-16T04:04:09;100795.97;;;-3.65;100.00
56392;BME280;42289;53.582;9.714;2022-12-16T04:06:37;100793.28;;;-3.73;100.00
56392;BME280;42289;53.582;9.714;2022-12-16T04:09:03;100797.56;;;-3.70;100.00
56392;BME280;42289;53.582;9.714;2022-12-16T04:11:30;100807.50;;;-3.81;100.00
56392;BME280;42289;53.582;9.714;2022-12-16T04:14:14;100804.56;;;-4.01;100.00
56392;BME280;42289;53.582;9.714;2022-12-16T04:16:58;100807.81;;;-4.09;100.00
56392;BME280;42289;53.582;9.714;2022-12-16T04:19:43;100810.56;;;-3.98;100.00
56392;BME280;42289;53.582;9.714;2022-12-16T04:22:42;100815.41;;;-4.10;100.00
56392;BME280;42289;53.582;9.714;2022-12-16T04:25:29;100824.59;;;-4.15;100.00
56392;BME280;42289;53.582;9.714;2022-12-16T04:27:56;100828.72;;;-4.19;100.00
56392;BME280;42289;53.582;9.714;2022-12-16T04:30:24;100838.72;;;-4.27;100.00
56392;BME280;42289;53.582;9.714;2022-12-16T04:32:53;100840.44;;;-4.26;100.00
56392;BME280;42289;53.582;9.714;2022-12-16T04:35:38;100843.75;;;-4.28;100.00
56392;BME280;42289;53.582;9.714;2022-12-16T04:38:24;100845.28;;;-4.35;100.00
56392;BME280;42289;53.582;9.714;2022-12-16T04:41:07;100846.09;;;-4.37;100.00
56392;BME280;42289;53.582;9.714;2022-12-16T04:43:54;100853.78;;;-4.34;100.00
56392;BME280;42289;53.582;9.714;2022-12-16T04:46:38;100852.88;;;-4.36;100.00
56392;BME280;42289;53.582;9.714;2022-12-16T04:49:22;100863.56;;;-4.50;100.00
56392;BME280;42289;53.582;9.714;2022-12-16T04:52:06;100857.06;;;-4.38;100.00
56392;BME280;42289;53.582;9.714;2022-12-16T04:54:51;100867.75;;;-4.52;100.00
56392;BME280;42289;53.582;9.714;2022-12-16T04:57:35;100874.44;;;-4.56;100.00
56392;BME280;42289;53.582;9.714;2022-12-16T05:00:19;100872.59;;;-4.61;100.00
56392;BME280;42289;53.582;9.714;2022-12-16T05:03:04;100869.78;;;-4.74;100.00
56392;BME280;42289;53.582;9.714;2022-12-16T05:05:48;100876.47;;;-4.76;100.00
56392;BME280;42289;53.582;9.714;2022-12-16T05:08:32;100883.81;;;-4.86;100.00
56392;BME280;42289;53.582;9.714;2022-12-16T05:11:25;100885.84;;;-4.73;100.00
56392;BME280;42289;53.582;9.714;2022-12-16T05:14:10;100901.78;;;-4.77;100.00
56392;BME280;42289;53.582;9.714;2022-12-16T05:16:54;100898.22;;;-4.85;100.00
56392;BME280;42289;53.582;9.714;2022-12-16T05:19:37;100904.13;;;-4.85;100.00
56392;BME280;42289;53.582;9.714;2022-12-16T05:22:21;100906.63;;;-4.86;100.00
56392;BME280;42289;53.582;9.714;2022-12-16T05:25:07;100909.00;;;-4.59;100.00
56392;BME280;42289;53.582;9.714;2022-12-16T05:27:54;100909.72;;;-4.65;100.00
56392;BME280;42289;53.582;9.714;2022-12-16T05:30:38;100920.69;;;-4.64;100.00
56392;BME280;42289;53.582;9.714;2022-12-16T05:33:22;100917.97;;;-4.74;100.00
56392;BME280;42289;53.582;9.714;2022-12-16T05:36:06;100923.88;;;-4.73;100.00
56392;BME280;42289;53.582;9.714;2022-12-16T05:38:51;100924.25;;;-4.58;100.00
56392;BME280;42289;53.582;9.714;2022-12-16T05:41:35;100926.94;;;-4.51;100.00
56392;BME280;42289;53.582;9.714;2022-12-16T05:44:20;100927.66;;;-4.57;100.00
56392;BME280;42289;53.582;9.714;2022-12-16T05:47:05;100927.69;;;-4.89;100.00
56392;BME280;42289;53.582;9.714;2022-12-16T05:49:49;100936.75;;;-4.65;100.00
56392;BME280;42289;53.582;9.714;2022-12-16T05:52:33;100935.78;;;-4.70;100.00
56392;BME280;42289;53.582;9.714;2022-12-16T05:55:17;100935.19;;;-4.94;100.00
56392;BME280;42289;53.582;9.714;2022-12-16T05:58:01;100929.50;;;-4.83;100.00
56392;BME280;42289;53.582;9.714;2022-12-16T06:00:46;100932.59;;;-4.95;100.00
56392;BME280;42289;53.582;9.714;2022-12-16T06:03:30;100940.25;;;-4.94;100.00
56392;BME280;42289;53.582;9.714;2022-12-16T06:06:14;100939.81;;;-5.09;100.00
56392;BME280;42289;53.582;9.714;2022-12-16T06:08:58;100944.69;;;-5.17;100.00
56392;BME280;42289;53.582;9.714;2022-12-16T06:11:42;100946.06;;;-4.98;100.00
56392;BME280;42289;53.582;9.714;2022-12-16T06:14:27;100949.56;;;-4.93;100.00
56392;BME280;42289;53.582;9.714;2022-12-16T06:17:12;100957.34;;;-4.86;100.00
56392;BME280;42289;53.582;9.714;2022-12-16T06:19:56;100959.09;;;-4.84;100.00
56392;BME280;42289;53.582;9.714;2022-12-16T06:22:39;100964.94;;;-4.86;100.00
56392;BME280;42289;53.582;9.714;2022-12-16T06:25:20;100969.97;;;-4.88;100.00
56392;BME280;42289;53.582;9.714;2022-12-16T06:28:04;100968.78;;;-4.69;100.00
56392;BME280;42289;53.582;9.714;2022-12-16T06:30:48;100972.38;;;-4.93;100.00
56392;BME280;42289;53.582;9.714;2022-12-16T06:33:33;100982.41;;;-4.65;100.00
56392;BME280;42289;53.582;9.714;2022-12-16T06:36:17;100988.38;;;-4.63;100.00
56392;BME280;42289;53.582;9.714;2022-12-16T06:39:01;100987.56;;;-4.62;100.00
56392;BME280;42289;53.582;9.714;2022-12-16T06:41:46;100990.34;;;-4.53;100.00
56392;BME280;42289;53.582;9.714;2022-12-16T06:44:30;100991.31;;;-4.48;100.00
56392;BME280;42289;53.582;9.714;2022-12-16T06:47:14;100990.53;;;-4.45;100.00
56392;BME280;42289;53.582;9.714;2022-12-16T06:49:59;100992.97;;;-4.48;100.00
56392;BME280;42289;53.582;9.714;2022-12-16T06:52:43;100989.56;;;-4.50;100.00
56392;BME280;42289;53.582;9.714;2022-12-16T06:55:28;100989.56;;;-4.50;100.00
56392;BME280;42289;53.582;9.714;2022-12-16T06:58:12;100991.19;;;-4.52;100.00
56392;BME280;42289;53.582;9.714;2022-12-16T07:00:56;101003.06;;;-4.51;100.00
56392;BME280;42289;53.582;9.714;2022-12-16T07:03:40;101005.81;;;-4.44;100.00
56392;BME280;42289;53.582;9.714;2022-12-16T07:06:25;101012.66;;;-4.40;100.00
56392;BME280;42289;53.582;9.714;2022-12-16T07:09:09;101001.84;;;-4.32;100.00
56392;BME280;42289;53.582;9.714;2022-12-16T07:12:02;101013.97;;;-4.22;100.00
56392;BME280;42289;53.582;9.714;2022-12-16T07:14:46;101016.22;;;-4.33;100.00
56392;BME280;42289;53.582;9.714;2022-12-16T07:17:30;101024.06;;;-4.24;100.00
56392;BME280;42289;53.582;9.714;2022-12-16T07:20:14;101024.19;;;-4.19;100.00
56392;BME280;42289;53.582;9.714;2022-12-16T07:22:59;101024.81;;;-4.28;100.00
56392;BME280;42289;53.582;9.714;2022-12-16T07:25:43;101029.31;;;-4.16;100.00
56392;BME280;42289;53.582;9.714;2022-12-16T07:28:26;101033.44;;;-4.21;100.00
56392;BME280;42289;53.582;9.714;2022-12-16T07:31:10;101048.75;;;-4.18;100.00
56392;BME280;42289;53.582;9.714;2022-12-16T07:33:54;101049.59;;;-4.17;100.00
56392;BME280;42289;53.582;9.714;2022-12-16T07:36:38;101047.00;;;-4.20;100.00
56392;BME280;42289;53.582;9.714;2022-12-16T07:39:24;101053.75;;;-4.21;100.00
56392;BME280;42289;53.582;9.714;2022-12-16T07:42:08;101050.19;;;-4.28;100.00
56392;BME280;42289;53.582;9.714;2022-12-16T07:44:51;101062.09;;;-4.25;100.00
56392;BME280;42289;53.582;9.714;2022-12-16T07:47:35;101067.22;;;-4.24;100.00
56392;BME280;42289;53.582;9.714;2022-12-16T07:50:20;101064.69;;;-4.24;100.00
56392;BME280;42289;53.582;9.714;2022-12-16T07:53:04;101070.59;;;-4.23;100.00
56392;BME280;42289;53.582;9.714;2022-12-16T07:55:49;101079.13;;;-4.21;100.00
56392;BME280;42289;53.582;9.714;2022-12-16T07:58:33;101077.41;;;-4.22;100.00
56392;BME280;42289;53.582;9.714;2022-12-16T08:01:17;101079.25;;;-4.16;100.00
56392;BME280;42289;53.582;9.714;2022-12-16T08:04:07;101087.84;;;-4.11;100.00
56392;BME280;42289;53.582;9.714;2022-12-16T08:06:51;101100.59;;;-4.08;100.00
56392;BME280;42289;53.582;9.714;2022-12-16T08:09:49;101104.13;;;-4.03;100.00
56392;BME280;42289;53.582;9.714;2022-12-16T08:12:31;101105.91;;;-4.00;100.00
56392;BME280;42289;53.582;9.714;2022-12-16T08:15:15;101107.75;;;-3.93;100.00
56392;BME280;42289;53.582;9.714;2022-12-16T08:18:05;101116.34;;;-3.88;100.00
56392;BME280;42289;53.582;9.714;2022-12-16T08:20:50;101117.34;;;-3.83;100.00
56392;BME280;42289;53.582;9.714;2022-12-16T08:23:33;101131.84;;;-3.79;100.00
56392;BME280;42289;53.582;9.714;2022-12-16T08:26:17;101127.59;;;-3.78;100.00
56392;BME280;42289;53.582;9.714;2022-12-16T08:29:03;101133.72;;;-3.70;100.00
56392;BME280;42289;53.582;9.714;2022-12-16T08:31:47;101132.03;;;-3.71;100.00
56392;BME280;42289;53.582;9.714;2022-12-16T08:34:31;101149.22;;;-3.61;100.00
56392;BME280;42289;53.582;9.714;2022-12-16T08:37:15;101143.25;;;-3.63;100.00
56392;BME280;42289;53.582;9.714;2022-12-16T08:40:10;101142.59;;;-3.54;100.00
56392;BME280;42289;53.582;9.714;2022-12-16T08:42:54;101141.81;;;-3.51;100.00
56392;BME280;42289;53.582;9.714;2022-12-16T08:45:39;101140.28;;;-3.45;100.00
56392;BME280;42289;53.582;9.714;2022-12-16T08:48:24;101139.53;;;-3.41;100.00
56392;BME280;42289;53.582;9.714;2022-12-16T08:51:08;101146.47;;;-3.33;100.00
56392;BME280;42289;53.582;9.714;2022-12-16T08:53:52;101139.94;;;-3.24;100.00
56392;BME280;42289;53.582;9.714;2022-12-16T08:56:35;101145.03;;;-3.24;100.00
56392;BME280;42289;53.582;9.714;2022-12-16T08:59:19;101143.38;;;-3.20;100.00
56392;BME280;42289;53.582;9.714;2022-12-16T09:02:05;101137.53;;;-3.17;100.00
56392;BME280;42289;53.582;9.714;2022-12-16T09:04:49;101135.97;;;-3.11;100.00
56392;BME280;42289;53.582;9.714;2022-12-16T09:07:33;101137.84;;;-3.03;100.00
56392;BME280;42289;53.582;9.714;2022-12-16T09:10:16;101139.66;;;-2.98;100.00
56392;BME280;42289;53.582;9.714;2022-12-16T09:13:04;101143.19;;;-2.93;100.00
56392;BME280;42289;53.582;9.714;2022-12-16T09:15:48;101150.09;;;-2.85;100.00
56392;BME280;42289;53.582;9.714;2022-12-16T09:18:33;101150.38;;;-2.73;100.00
56392;BME280;42289;53.582;9.714;2022-12-16T09:21:17;101155.41;;;-2.76;100.00
56392;BME280;42289;53.582;9.714;2022-12-16T09:24:07;101157.88;;;-2.79;100.00
56392;BME280;42289;53.582;9.714;2022-12-16T09:26:51;101162.13;;;-2.78;100.00
56392;BME280;42289;53.582;9.714;2022-12-16T09:29:35;101174.97;;;-2.74;100.00
56392;BME280;42289;53.582;9.714;2022-12-16T09:32:19;101176.41;;;-2.85;100.00
56392;BME280;42289;53.582;9.714;2022-12-16T09:35:05;101176.50;;;-2.80;100.00
56392;BME280;42289;53.582;9.714;2022-12-16T09:37:49;101186.59;;;-2.83;100.00
56392;BME280;42289;53.582;9.714;2022-12-16T09:40:45;101176.59;;;-2.76;100.00
56392;BME280;42289;53.582;9.714;2022-12-16T09:43:33;101176.56;;;-2.77;100.00
56392;BME280;42289;53.582;9.714;2022-12-16T09:46:26;101174.06;;;-2.76;100.00
56392;BME280;42289;53.582;9.714;2022-12-16T09:49:19;101174.72;;;-2.84;100.00
56392;BME280;42289;53.582;9.714;2022-12-16T09:52:13;101183.25;;;-2.81;100.00
56392;BME280;42289;53.582;9.714;2022-12-16T09:54:58;101184.91;;;-2.84;100.00
56392;BME280;42289;53.582;9.714;2022-12-16T09:57:51;101184.88;;;-2.86;100.00
56392;BME280;42289;53.582;9.714;2022-12-16T10:00:35;101186.69;;;-2.80;100.00
56392;BME280;42289;53.582;9.714;2022-12-16T10:03:21;101184.94;;;-2.83;100.00
56392;BME280;42289;53.582;9.714;2022-12-16T10:06:10;101183.25;;;-2.81;100.00
56392;BME280;42289;53.582;9.714;2022-12-16T10:09:09;101180.81;;;-2.78;100.00
56392;BME280;42289;53.582;9.714;2022-12-16T10:11:57;101180.69;;;-2.82;100.00
56392;BME280;42289;53.582;9.714;2022-12-16T10:14:50;101187.00;;;-2.65;100.00
56392;BME280;42289;53.582;9.714;2022-12-16T10:17:44;101193.84;;;-2.62;100.00
56392;BME280;42289;53.582;9.714;2022-12-16T10:20:34;101194.66;;;-2.63;100.00
56392;BME280;42289;53.582;9.714;2022-12-16T10:23:27;101194.56;;;-2.69;100.00
56392;BME280;42289;53.582;9.714;2022-12-16T10:26:20;101190.50;;;-2.61;100.00
56392;BME280;42289;53.582;9.714;2022-12-16T10:29:12;101188.69;;;-2.67;100.00
56392;BME280;42289;53.582;9.714;2022-12-16T10:32:03;101199.75;;;-2.63;100.00
56392;BME280;42289;53.582;9.714;2022-12-16T10:34:49;101202.41;;;-2.60;100.00
56392;BME280;42289;53.582;9.714;2022-12-16T10:37:35;101198.19;;;-2.58;100.00
56392;BME280;42289;53.582;9.714;2022-12-16T10:40:23;101200.78;;;-2.55;100.00
56392;BME280;42289;53.582;9.714;2022-12-16T10:43:15;101205.22;;;-2.46;100.00
56392;BME280;42289;53.582;9.714;2022-12-16T10:46:05;101208.38;;;-2.58;100.00
56392;BME280;42289;53.582;9.714;2022-12-16T10:48:50;101209.94;;;-2.63;100.00
56392;BME280;42289;53.582;9.714;2022-12-16T10:51:34;101203.94;;;-2.67;100.00
56392;BME280;42289;53.582;9.714;2022-12-16T10:54:22;101204.03;;;-2.62;100.00
56392;BME280;42289;53.582;9.714;2022-12-16T10:57:10;101202.53;;;-2.53;100.00
56392;BME280;42289;53.582;9.714;2022-12-16T11:00:10;101205.22;;;-2.46;100.00
56392;BME280;42289;53.582;9.714;2022-12-16T11:02:54;101205.44;;;-2.35;100.00
56392;BME280;42289;53.582;9.714;2022-12-16T11:05:38;101198.81;;;-2.29;100.00
56392;BME280;42289;53.582;9.714;2022-12-16T11:08:26;101199.91;;;-2.16;100.00
56392;BME280;42289;53.582;9.714;2022-12-16T11:11:19;101200.75;;;-2.15;100.00
56392;BME280;42289;53.582;9.714;2022-12-16T11:14:14;101187.41;;;-2.04;100.00
56392;BME280;42289;53.582;9.714;2022-12-16T11:17:16;101189.97;;;-2.04;100.00
56392;BME280;42289;53.582;9.714;2022-12-16T11:20:14;101184.06;;;-2.01;100.00
56392;BME280;42289;53.582;9.714;2022-12-16T11:23:12;101185.69;;;-2.05;100.00
56392;BME280;42289;53.582;9.714;2022-12-16T11:26:11;101184.00;;;-2.04;100.00
56392;BME280;42289;53.582;9.714;2022-12-16T11:29:08;101178.09;;;-2.01;100.00
56392;BME280;42289;53.582;9.714;2022-12-16T11:31:56;101184.16;;;-1.96;100.00
56392;BME280;42289;53.582;9.714;2022-12-16T11:34:45;101185.00;;;-1.96;100.00
56392;BME280;42289;53.582;9.714;2022-12-16T11:37:32;101183.22;;;-2.00;100.00
56392;BME280;42289;53.582;9.714;2022-12-16T11:40:18;101190.00;;;-2.00;100.00
56392;BME280;42289;53.582;9.714;2022-12-16T11:43:04;101188.31;;;-2.00;100.00
56392;BME280;42289;53.582;9.714;2022-12-16T11:45:50;101189.19;;;-1.99;100.00
56392;BME280;42289;53.582;9.714;2022-12-16T11:48:38;101194.47;;;-1.90;100.00
56392;BME280;42289;53.582;9.714;2022-12-16T11:51:41;101197.84;;;-1.90;100.00
56392;BME280;42289;53.582;9.714;2022-12-16T11:54:29;101193.50;;;-1.95;100.00
56392;BME280;42289;53.582;9.714;2022-12-16T11:57:18;101191.25;;;-1.80;100.00
56392;BME280;42289;53.582;9.714;2022-12-16T12:00:06;101189.38;;;-1.90;100.00
56392;BME280;42289;53.582;9.714;2022-12-16T12:03:00;101188.47;;;-1.92;100.00
56392;BME280;42289;53.582;9.714;2022-12-16T12:05:54;101194.38;;;-1.93;100.00
56392;BME280;42289;53.582;9.714;2022-12-16T12:08:47;101191.75;;;-1.99;100.00
56392;BME280;42289;53.582;9.714;2022-12-16T12:11:35;101191.81;;;-1.95;100.00
56392;BME280;42289;53.582;9.714;2022-12-16T12:14:30;101199.66;;;-1.84;100.00
56392;BME280;42289;53.582;9.714;2022-12-16T12:17:23;101208.19;;;-1.83;100.00
56392;BME280;42289;53.582;9.714;2022-12-16T12:20:28;101218.25;;;-1.88;100.00
56392;BME280;42289;53.582;9.714;2022-12-16T12:23:22;101227.47;;;-1.96;100.00
56392;BME280;42289;53.582;9.714;2022-12-16T12:26:10;101230.97;;;-1.90;100.00
56392;BME280;42289;53.582;9.714;2022-12-16T12:29:00;101241.94;;;-1.94;100.00
56392;BME280;42289;53.582;9.714;2022-12-16T12:31:56;101247.13;;;-1.89;100.00
56392;BME280;42289;53.582;9.714;2022-12-16T12:34:50;101251.38;;;-1.88;100.00
56392;BME280;42289;53.582;9.714;2022-12-16T12:37:42;101247.19;;;-1.88;100.00
56392;BME280;42289;53.582;9.714;2022-12-16T12:40:40;101247.19;;;-1.88;100.00
56392;BME280;42289;53.582;9.714;2022-12-16T12:43:34;101244.66;;;-1.86;100.00
56392;BME280;42289;53.582;9.714;2022-12-16T12:46:24;101256.50;;;-1.87;100.00
56392;BME280;42289;53.582;9.714;2022-12-16T12:49:18;101254.06;;;-1.82;100.00
56392;BME280;42289;53.582;9.714;2022-12-16T12:52:13;101241.38;;;-1.79;100.00
56392;BME280;42289;53.582;9.714;2022-12-16T12:55:06;101247.44;;;-1.74;100.00
56392;BME280;42289;53.582;9.714;2022-12-16T12:58:09;101240.41;;;-1.86;100.00
56392;BME280;42289;53.582;9.714;2022-12-16T13:00:56;101243.09;;;-1.78;100.00
56392;BME280;42289;53.582;9.714;2022-12-16T13:03:42;101249.06;;;-1.76;100.00
56392;BME280;42289;53.582;9.714;2022-12-16T13:06:29;101245.84;;;-1.68;100.00
56392;BME280;42289;53.582;9.714;2022-12-16T13:09:27;101245.94;;;-1.62;100.00
56392;BME280;42289;53.582;9.714;2022-12-16T13:12:24;101247.72;;;-1.57;100.00
56392;BME280;42289;53.582;9.714;2022-12-16T13:15:14;101247.53;;;-1.67;100.00
56392;BME280;42289;53.582;9.714;2022-12-16T13:18:32;101243.34;;;-1.64;100.00
56392;BME280;42289;53.582;9.714;2022-12-16T13:21:41;101255.16;;;-1.69;100.00
56392;BME280;42289;53.582;9.714;2022-12-16T13:24:41;101261.00;;;-1.75;100.00
56392;BME280;42289;53.582;9.714;2022-12-16T13:27:27;101271.81;;;-1.87;100.00
56392;BME280;42289;53.582;9.714;2022-12-16T13:30:21;101272.59;;;-1.89;100.00
56392;BME280;42289;53.582;9.714;2022-12-16T13:33:17;101286.88;;;-1.97;100.00
56392;BME280;42289;53.582;9.714;2022-12-16T13:36:05;101294.41;;;-2.04;100.00
56392;BME280;42289;53.582;9.714;2022-12-16T13:38:52;101289.44;;;-1.96;100.00
56392;BME280;42289;53.582;9.714;2022-12-16T13:41:49;101290.31;;;-1.97;100.00
56392;BME280;42289;53.582;9.714;2022-12-16T13:44:58;101293.28;;;-2.16;100.00
56392;BME280;42289;53.582;9.714;2022-12-16T13:48:00;101293.38;;;-2.12;100.00
56392;BME280;42289;53.582;9.714;2022-12-16T13:50:46;101303.81;;;-1.99;100.00
56392;BME280;42289;53.582;9.714;2022-12-16T13:53:35;101310.94;;;-2.24;100.00
56392;BME280;42289;53.582;9.714;2022-12-16T13:56:25;101312.38;;;-2.35;100.00
56392;BME280;42289;53.582;9.714;2022-12-16T13:59:14;101310.25;;;-2.17;100.00
56392;BME280;42289;53.582;9.714;2022-12-16T14:02:16;101312.38;;;-2.35;100.00